sensor_id;sensor_type;location;lat;lon;timestamp;pressure;altitude;pressure_sealevel;temperature;humidity
6425;BME280;12193;42.642;23.384;2023-02-10T00:00:17;96169.72;;;-5.60;85.66
6425;BME280;12193;42.642;23.384;2023-02-10T00:02:46;96163.97;;;-5.63;85.67
6425;BME280;12193;42.642;23.384;2023-02-10T00:05:16;96172.72;;;-5.50;86.07
6425;BME280;12193;42.642;23.384;2023-02-10T00:07:45;96166.69;;;-5.48;86.07
6425;BME280;12193;42.642;23.384;2023-02-10T00:10:15;96164.78;;;-5.43;85.18
6425;BME280;12193;42.642;23.384;2023-02-10T00:12:44;96176.25;;;-5.16;84.68
6425;BME280;12193;42.642;23.384;2023-02-10T00:15:13;96173.03;;;-5.19;84.05
6425;BME280;12193;42.642;23.384;2023-02-10T00:17:45;96173.50;;;-5.50;84.20
6425;BME280;12193;42.642;23.384;2023-02-10T00:20:15;96169.72;;;-5.60;85.83
6425;BME280;12193;42.642;23.384;2023-02-10T00:22:45;96165.13;;;-5.50;86.06
6425;BME280;12193;42.642;23.384;2023-02-10T00:25:14;96165.81;;;-5.67;86.23
6425;BME280;12193;42.642;23.384;2023-02-10T00:27:43;96160.94;;;-5.71;85.29
6425;BME280;12193;42.642;23.384;2023-02-10T00:30:13;96165.41;;;-5.96;84.30
6425;BME280;12193;42.642;23.384;2023-02-10T00:32:44;96167.41;;;-6.04;84.47
6425;BME280;12193;42.642;23.384;2023-02-10T00:35:14;96166.22;;;-5.96;84.04
6425;BME280;12193;42.642;23.384;2023-02-10T00:37:43;96163.94;;;-6.02;83.76
6425;BME280;12193;42.642;23.384;2023-02-10T00:40:13;96165.84;;;-6.07;83.70
6425;BME280;12193;42.642;23.384;2023-02-10T00:42:42;96152.00;;;-6.19;84.41
6425;BME280;12193;42.642;23.384;2023-02-10T00:45:11;96158.09;;;-6.23;84.74
6425;BME280;12193;42.642;23.384;2023-02-10T00:47:41;96148.25;;;-6.10;84.07
6425;BME280;12193;42.642;23.384;2023-02-10T00:50:15;96146.94;;;-6.19;84.51
6425;BME280;12193;42.642;23.384;2023-02-10T00:52:44;96145.75;;;-6.11;84.09
6425;BME280;12193;42.642;23.384;2023-02-10T00:55:14;96145.53;;;-6.05;83.83
6425;BME280;12193;42.642;23.384;2023-02-10T00:57:43;96144.31;;;-5.97;83.39
6425;BME280;12193;42.642;23.384;2023-02-10T01:00:14;96141.03;;;-5.99;82.80
6425;BME280;12193;42.642;23.384;2023-02-10T01:02:43;96142.56;;;-5.95;82.42
6425;BME280;12193;42.642;23.384;2023-02-10T01:05:15;96137.38;;;-6.12;82.99
6425;BME280;12193;42.642;23.384;2023-02-10T04:08:46;96035.75;;;-6.41;97.47
6425;BME280;12193;42.642;23.384;2023-02-10T04:11:16;96029.16;;;-6.45;97.51
6425;BME280;12193;42.642;23.384;2023-02-10T04:13:46;96032.25;;;-6.58;98.61
6425;BME280;12193;42.642;23.384;2023-02-10T04:16:16;96036.72;;;-6.65;99.47
6425;BME280;12193;42.642;23.384;2023-02-10T04:18:47;96038.56;;;-6.68;99.79
6425;BME280;12193;42.642;23.384;2023-02-10T04:21:17;96041.97;;;-6.69;100.00
6425;BME280;12193;42.642;23.384;2023-02-10T04:23:48;96034.00;;;-6.60;100.00
6425;BME280;12193;42.642;23.384;2023-02-10T04:26:18;96041.25;;;-6.51;100.00
6425;BME280;12193;42.642;23.384;2023-02-10T04:28:48;96030.56;;;-6.58;99.92
6425;BME280;12193;42.642;23.384;2023-02-10T04:31:17;96037.63;;;-6.66;100.00
6425;BME280;12193;42.642;23.384;2023-02-10T04:33:47;96032.56;;;-6.66;100.00
6425;BME280;12193;42.642;23.384;2023-02-10T04:36:16;96032.19;;;-6.57;100.00
6425;BME280;12193;42.642;23.384;2023-02-10T04:38:48;96030.78;;;-6.64;100.00
6425;BME280;12193;42.642;23.384;2023-02-10T04:41:17;96038.94;;;-6.57;100.00
6425;BME280;12193;42.642;23.384;2023-02-10T04:43:47;96041.66;;;-6.62;99.92
6425;BME280;12193;42.642;23.384;2023-02-10T04:46:16;96038.88;;;-6.76;100.00
6425;BME280;12193;42.642;23.384;2023-02-10T04:48:45;96046.69;;;-7.03;99.34
6425;BME280;12193;42.642;23.384;2023-02-10T04:51:15;96053.38;;;-7.02;97.53
6425;BME280;12193;42.642;23.384;2023-02-10T04:53:44;96048.16;;;-7.19;96.07
6425;BME280;12193;42.642;23.384;2023-02-10T04:56:17;96049.53;;;-7.32;95.08
6425;BME280;12193;42.642;23.384;2023-02-10T04:58:46;96048.78;;;-7.57;94.96
6425;BME280;12193;42.642;23.384;2023-02-10T05:01:16;96048.88;;;-7.60;94.91
6425;BME280;12193;42.642;23.384;2023-02-10T05:03:45;96052.34;;;-7.62;94.94
6425;BME280;12193;42.642;23.384;2023-02-10T05:06:15;96052.63;;;-7.47;95.10
6425;BME280;12193;42.642;23.384;2023-02-10T05:08:44;96051.56;;;-7.64;94.77
6425;BME280;12193;42.642;23.384;2023-02-10T05:11:18;96057.31;;;-7.61;94.93
6425;BME280;12193;42.642;23.384;2023-02-10T05:13:48;96056.53;;;-7.61;94.40
6425;BME280;12193;42.642;23.384;2023-02-10T05:16:17;96065.94;;;-7.66;93.61
6425;BME280;12193;42.642;23.384;2023-02-10T05:18:46;96063.03;;;-7.79;94.53
6425;BME280;12193;42.642;23.384;2023-02-10T05:21:16;96070.66;;;-7.80;94.26
6425;BME280;12193;42.642;23.384;2023-02-10T05:23:45;96086.97;;;-7.89;94.63
6425;BME280;12193;42.642;23.384;2023-02-10T05:26:17;96082.38;;;-8.02;95.27
6425;BME280;12193;42.642;23.384;2023-02-10T05:28:46;96082.88;;;-7.93;95.13
6425;BME280;12193;42.642;23.384;2023-02-10T05:31:15;96085.84;;;-7.82;94.90
6425;BME280;12193;42.642;23.384;2023-02-10T05:33:45;96097.41;;;-7.99;95.01
6425;BME280;12193;42.642;23.384;2023-02-10T05:36:14;96091.50;;;-7.98;95.81
6425;BME280;12193;42.642;23.384;2023-02-10T05:38:43;96098.13;;;-7.96;95.16
6425;BME280;12193;42.642;23.384;2023-02-10T05:41:35;96098.13;;;-7.96;94.92
6425;BME280;12193;42.642;23.384;2023-02-10T05:44:05;96105.78;;;-7.99;94.34
6425;BME280;12193;42.642;23.384;2023-02-10T05:46:34;96110.75;;;-7.73;93.27
6425;BME280;12193;42.642;23.384;2023-02-10T05:49:03;96113.72;;;-7.39;91.52
6425;BME280;12193;42.642;23.384;2023-02-10T05:51:33;96117.41;;;-7.47;90.79
6425;BME280;12193;42.642;23.384;2023-02-10T05:54:02;96116.16;;;-7.36;89.57
6425;BME280;12193;42.642;23.384;2023-02-10T05:56:34;96117.63;;;-7.53;89.06
6425;BME280;12193;42.642;23.384;2023-02-10T05:59:04;96119.03;;;-7.45;88.12
6425;BME280;12193;42.642;23.384;2023-02-10T06:01:33;96116.75;;;-7.75;89.58
6425;BME280;12193;42.642;23.384;2023-02-10T06:04:03;96117.84;;;-7.59;89.96
6425;BME280;12193;42.642;23.384;2023-02-10T06:06:32;96123.34;;;-7.96;92.26
6425;BME280;12193;42.642;23.384;2023-02-10T06:09:02;96125.91;;;-7.73;92.43
6425;BME280;12193;42.642;23.384;2023-02-10T06:11:32;96132.44;;;-7.67;92.50
6425;BME280;12193;42.642;23.384;2023-02-10T06:14:04;96139.84;;;-7.40;91.25
6425;BME280;12193;42.642;23.384;2023-02-10T06:16:33;96126.38;;;-7.86;93.25
6425;BME280;12193;42.642;23.384;2023-02-10T06:19:03;96147.97;;;-8.04;94.14
6425;BME280;12193;42.642;23.384;2023-02-10T06:21:32;96141.06;;;-7.74;94.59
6425;BME280;12193;42.642;23.384;2023-02-10T06:24:01;96142.53;;;-6.56;90.77
6425;BME280;12193;42.642;23.384;2023-02-10T06:26:31;96146.91;;;-6.18;84.72
6425;BME280;12193;42.642;23.384;2023-02-10T06:29:00;96141.91;;;-5.80;82.57
6425;BME280;12193;42.642;23.384;2023-02-10T06:31:32;96152.56;;;-5.53;81.27
6425;BME280;12193;42.642;23.384;2023-02-10T06:34:01;96146.34;;;-5.46;79.07
6425;BME280;12193;42.642;23.384;2023-02-10T06:36:31;96145.97;;;-3.95;73.96
6425;BME280;12193;42.642;23.384;2023-02-10T06:39:00;96149.94;;;-3.55;70.88
6425;BME280;12193;42.642;23.384;2023-02-10T06:41:30;96140.97;;;-3.62;69.65
6425;BME280;12193;42.642;23.384;2023-02-10T06:43:59;96149.25;;;-3.09;67.43
6425;BME280;12193;42.642;23.384;2023-02-10T06:49:03;96155.94;;;-1.28;61.30
6425;BME280;12193;42.642;23.384;2023-02-10T06:51:32;96152.25;;;-0.14;56.24
6425;BME280;12193;42.642;23.384;2023-02-10T06:54:02;96154.03;;;-0.97;58.11
6425;BME280;12193;42.642;23.384;2023-02-10T06:56:31;96156.00;;;-0.46;57.54
6425;BME280;12193;42.642;23.384;2023-02-10T06:59:01;96156.50;;;-1.23;60.05
6425;BME280;12193;42.642;23.384;2023-02-10T07:01:30;96156.28;;;-1.91;62.51
6425;BME280;12193;42.642;23.384;2023-02-10T07:03:59;96159.09;;;-1.66;64.11
6425;BME280;12193;42.642;23.384;2023-02-10T07:06:31;96156.06;;;-0.07;58.14
6425;BME280;12193;42.642;23.384;2023-02-10T07:09:01;96152.56;;;0.72;53.77
6425;BME280;12193;42.642;23.384;2023-02-10T07:11:31;96158.06;;;1.28;52.38
6425;BME280;12193;42.642;23.384;2023-02-10T07:14:00;96154.06;;;0.62;53.83
6425;BME280;12193;42.642;23.384;2023-02-10T07:16:29;96149.44;;;0.29;54.35
6425;BME280;12193;42.642;23.384;2023-02-10T07:19:00;96143.63;;;0.65;53.78
6425;BME280;12193;42.642;23.384;2023-02-10T07:21:32;96144.06;;;0.71;53.42
6425;BME280;12193;42.642;23.384;2023-02-10T07:24:01;96142.41;;;0.58;53.40
6425;BME280;12193;42.642;23.384;2023-02-10T07:26:30;96142.31;;;0.72;53.63
6425;BME280;12193;42.642;23.384;2023-02-10T07:29:00;96133.31;;;1.88;50.94
6425;BME280;12193;42.642;23.384;2023-02-10T07:31:29;96126.88;;;2.05;49.11
6425;BME280;12193;42.642;23.384;2023-02-10T07:34:01;96148.19;;;1.47;50.83
6425;BME280;12193;42.642;23.384;2023-02-10T07:36:33;96136.03;;;1.25;52.35
6425;BME280;12193;42.642;23.384;2023-02-10T07:39:02;96132.34;;;1.29;51.34
6425;BME280;12193;42.642;23.384;2023-02-10T07:41:32;96129.59;;;1.07;51.71
6425;BME280;12193;42.642;23.384;2023-02-10T07:44:02;96136.88;;;1.62;50.14
6425;BME280;12193;42.642;23.384;2023-02-10T07:46:31;96127.75;;;1.94;49.39
6425;BME280;12193;42.642;23.384;2023-02-10T07:49:00;96130.41;;;1.92;49.66
6425;BME280;12193;42.642;23.384;2023-02-10T07:51:30;96128.09;;;2.58;48.46
6425;BME280;12193;42.642;23.384;2023-02-10T07:54:02;96135.44;;;1.94;49.54
6425;BME280;12193;42.642;23.384;2023-02-10T07:56:31;96138.50;;;1.27;51.28
6425;BME280;12193;42.642;23.384;2023-02-10T07:59:01;96139.78;;;1.45;51.54
6425;BME280;12193;42.642;23.384;2023-02-10T08:01:30;96140.09;;;1.53;50.72
6425;BME280;12193;42.642;23.384;2023-02-10T08:04:02;96147.53;;;0.95;52.38
6425;BME280;12193;42.642;23.384;2023-02-10T08:06:32;96134.53;;;1.59;51.74
6425;BME280;12193;42.642;23.384;2023-02-10T08:09:04;96134.91;;;0.30;56.81
6425;BME280;12193;42.642;23.384;2023-02-10T08:11:33;96135.28;;;-0.41;57.22
6425;BME280;12193;42.642;23.384;2023-02-10T08:14:03;96136.81;;;0.14;55.99
6425;BME280;12193;42.642;23.384;2023-02-10T08:16:32;96136.22;;;1.35;52.97
6425;BME280;12193;42.642;23.384;2023-02-10T08:19:01;96128.59;;;2.05;50.36
6425;BME280;12193;42.642;23.384;2023-02-10T08:21:31;96131.88;;;2.07;50.42
6425;BME280;12193;42.642;23.384;2023-02-10T08:24:03;96128.69;;;2.27;48.21
6425;BME280;12193;42.642;23.384;2023-02-10T08:26:33;96135.66;;;2.25;48.46
6425;BME280;12193;42.642;23.384;2023-02-10T08:29:02;96132.47;;;2.45;47.34
6425;BME280;12193;42.642;23.384;2023-02-10T08:31:32;96132.53;;;2.67;47.43
6425;BME280;12193;42.642;23.384;2023-02-10T08:34:02;96136.63;;;2.69;46.54
6425;BME280;12193;42.642;23.384;2023-02-10T08:36:32;96130.72;;;2.91;46.53
6425;BME280;12193;42.642;23.384;2023-02-10T08:39:04;96130.66;;;2.69;46.19
6425;BME280;12193;42.642;23.384;2023-02-10T08:41:33;96127.88;;;1.08;50.42
6425;BME280;12193;42.642;23.384;2023-02-10T08:44:03;96122.91;;;2.92;47.27
6425;BME280;12193;42.642;23.384;2023-02-10T08:46:33;96127.09;;;2.71;46.42
6425;BME280;12193;42.642;23.384;2023-02-10T08:49:03;96126.66;;;2.43;46.75
6425;BME280;12193;42.642;23.384;2023-02-10T08:51:33;96127.66;;;2.86;46.24
6425;BME280;12193;42.642;23.384;2023-02-10T08:54:07;96128.75;;;2.49;47.19
6425;BME280;12193;42.642;23.384;2023-02-10T08:56:36;96125.72;;;2.89;45.75
6425;BME280;12193;42.642;23.384;2023-02-10T08:59:05;96113.84;;;4.48;42.61
6425;BME280;12193;42.642;23.384;2023-02-10T09:01:35;96115.22;;;2.92;46.61
6425;BME280;12193;42.642;23.384;2023-02-10T09:04:04;96118.50;;;2.49;46.57
6425;BME280;12193;42.642;23.384;2023-02-10T09:06:36;96111.78;;;3.57;45.68
6425;BME280;12193;42.642;23.384;2023-02-10T09:09:12;96113.69;;;3.33;46.37
6425;BME280;12193;42.642;23.384;2023-02-10T09:11:43;96114.88;;;3.18;45.43
6425;BME280;12193;42.642;23.384;2023-02-10T09:14:13;96116.84;;;3.04;45.04
6425;BME280;12193;42.642;23.384;2023-02-10T09:16:42;96111.72;;;2.93;45.42
6425;BME280;12193;42.642;23.384;2023-02-10T09:19:12;96110.44;;;3.20;45.43
6425;BME280;12193;42.642;23.384;2023-02-10T09:21:41;96107.03;;;1.84;47.83
6425;BME280;12193;42.642;23.384;2023-02-10T09:24:13;96104.56;;;2.86;46.34
6425;BME280;12193;42.642;23.384;2023-02-10T09:26:44;96106.81;;;3.12;45.34
6425;BME280;12193;42.642;23.384;2023-02-10T09:29:13;96107.41;;;2.03;48.44
6425;BME280;12193;42.642;23.384;2023-02-10T09:31:42;96104.00;;;3.15;46.45
6425;BME280;12193;42.642;23.384;2023-02-10T09:34:12;96089.16;;;3.40;45.45
6425;BME280;12193;42.642;23.384;2023-02-10T09:36:41;96090.81;;;3.84;44.85
6425;BME280;12193;42.642;23.384;2023-02-10T09:39:13;96090.00;;;5.26;41.82
6425;BME280;12193;42.642;23.384;2023-02-10T09:41:51;96096.97;;;2.84;45.27
6425;BME280;12193;42.642;23.384;2023-02-10T09:44:25;96080.84;;;4.21;43.38
6425;BME280;12193;42.642;23.384;2023-02-10T09:47:24;96082.97;;;4.98;41.91
6425;BME280;12193;42.642;23.384;2023-02-10T09:50:05;96074.97;;;4.71;41.97
6425;BME280;12193;42.642;23.384;2023-02-10T09:52:52;96077.09;;;4.66;43.12
6425;BME280;12193;42.642;23.384;2023-02-10T09:55:32;96072.16;;;3.71;43.51
6425;BME280;12193;42.642;23.384;2023-02-10T09:58:08;96074.19;;;3.88;43.49
6425;BME280;12193;42.642;23.384;2023-02-10T10:00:43;96068.78;;;3.59;43.17
6425;BME280;12193;42.642;23.384;2023-02-10T10:03:16;96067.44;;;3.11;45.09
6425;BME280;12193;42.642;23.384;2023-02-10T10:05:52;96063.78;;;3.47;44.96
6425;BME280;12193;42.642;23.384;2023-02-10T10:08:29;96063.56;;;4.74;42.01
6425;BME280;12193;42.642;23.384;2023-02-10T10:11:13;96048.28;;;4.52;42.63
6425;BME280;12193;42.642;23.384;2023-02-10T10:13:48;96051.41;;;4.35;42.58
6425;BME280;12193;42.642;23.384;2023-02-10T10:16:24;96047.41;;;4.42;44.00
6425;BME280;12193;42.642;23.384;2023-02-10T10:19:06;96046.84;;;4.18;43.71
6425;BME280;12193;42.642;23.384;2023-02-10T10:21:46;96036.28;;;4.21;43.54
6425;BME280;12193;42.642;23.384;2023-02-10T10:24:32;96041.47;;;4.71;43.77
6425;BME280;12193;42.642;23.384;2023-02-10T10:27:19;96035.03;;;5.16;42.87
6425;BME280;12193;42.642;23.384;2023-02-10T10:29:53;96025.81;;;5.23;41.94
6425;BME280;12193;42.642;23.384;2023-02-10T10:32:35;96024.63;;;5.95;40.33
6425;BME280;12193;42.642;23.384;2023-02-10T10:35:14;96020.81;;;5.89;39.15
6425;BME280;12193;42.642;23.384;2023-02-10T10:37:44;96021.91;;;5.87;40.53
6425;BME280;12193;42.642;23.384;2023-02-10T10:40:17;96014.25;;;5.57;41.59
6425;BME280;12193;42.642;23.384;2023-02-10T10:42:52;96012.91;;;5.72;40.25
6425;BME280;12193;42.642;23.384;2023-02-10T10:45:28;96009.84;;;5.29;42.09
6425;BME280;12193;42.642;23.384;2023-02-10T10:48:01;96009.22;;;5.55;40.89
6425;BME280;12193;42.642;23.384;2023-02-10T10:50:35;96012.63;;;5.56;39.56
6425;BME280;12193;42.642;23.384;2023-02-10T10:53:13;96005.47;;;5.20;40.22
6425;BME280;12193;42.642;23.384;2023-02-10T10:55:47;96011.09;;;4.95;41.60
6425;BME280;12193;42.642;23.384;2023-02-10T10:58:23;96006.34;;;5.49;40.89
6425;BME280;12193;42.642;23.384;2023-02-10T11:00:56;96002.19;;;5.86;40.54
6425;BME280;12193;42.642;23.384;2023-02-10T11:03:27;95997.59;;;5.89;40.25
6425;BME280;12193;42.642;23.384;2023-02-10T11:06:02;95992.53;;;5.59;40.26
6425;BME280;12193;42.642;23.384;2023-02-10T11:08:35;95980.41;;;5.50;40.33
6425;BME280;12193;42.642;23.384;2023-02-10T11:11:09;95977.47;;;5.06;41.92
6425;BME280;12193;42.642;23.384;2023-02-10T11:13:53;95983.59;;;4.66;42.97
6425;BME280;12193;42.642;23.384;2023-02-10T11:16:24;95975.16;;;4.34;44.10
6425;BME280;12193;42.642;23.384;2023-02-10T11:18:55;95980.81;;;4.07;43.76
6425;BME280;12193;42.642;23.384;2023-02-10T11:21:33;95983.19;;;4.20;45.23
6425;BME280;12193;42.642;23.384;2023-02-10T11:24:13;95973.78;;;4.09;44.76
6425;BME280;12193;42.642;23.384;2023-02-10T11:26:54;95966.59;;;3.72;45.45
6425;BME280;12193;42.642;23.384;2023-02-10T11:29:27;95974.44;;;4.32;44.21
6425;BME280;12193;42.642;23.384;2023-02-10T11:31:57;95967.44;;;4.34;43.62
6425;BME280;12193;42.642;23.384;2023-02-10T11:34:28;95957.75;;;4.86;41.94
6425;BME280;12193;42.642;23.384;2023-02-10T11:37:09;95957.94;;;4.94;42.17
6425;BME280;12193;42.642;23.384;2023-02-10T11:39:40;95953.28;;;5.27;41.69
6425;BME280;12193;42.642;23.384;2023-02-10T11:42:17;95957.75;;;5.25;42.15
6425;BME280;12193;42.642;23.384;2023-02-10T11:44:56;95961.03;;;4.28;42.19
6425;BME280;12193;42.642;23.384;2023-02-10T11:47:28;95959.81;;;4.92;42.33
6425;BME280;12193;42.642;23.384;2023-02-10T11:49:58;95954.97;;;5.85;40.09
6425;BME280;12193;42.642;23.384;2023-02-10T11:52:29;95945.06;;;6.45;39.41
6425;BME280;12193;42.642;23.384;2023-02-10T11:55:00;95940.16;;;6.42;39.36
6425;BME280;12193;42.642;23.384;2023-02-10T11:57:40;95942.06;;;5.95;38.40
6425;BME280;12193;42.642;23.384;2023-02-10T12:00:32;95935.09;;;5.67;39.57
6425;BME280;12193;42.642;23.384;2023-02-10T12:03:35;95931.78;;;4.99;40.31
6425;BME280;12193;42.642;23.384;2023-02-10T12:06:14;95932.19;;;4.94;40.96
6425;BME280;12193;42.642;23.384;2023-02-10T12:08:51;95932.69;;;4.88;41.04
6425;BME280;12193;42.642;23.384;2023-02-10T12:11:28;95927.28;;;4.52;41.89
6425;BME280;12193;42.642;23.384;2023-02-10T12:14:04;95926.06;;;3.76;43.10
6425;BME280;12193;42.642;23.384;2023-02-10T12:16:46;95921.72;;;2.71;44.99
6425;BME280;12193;42.642;23.384;2023-02-10T12:19:23;95917.81;;;2.99;45.19
6425;BME280;12193;42.642;23.384;2023-02-10T12:22:04;95917.50;;;2.92;44.82
6425;BME280;12193;42.642;23.384;2023-02-10T12:27:49;95917.13;;;3.80;43.70
6425;BME280;12193;42.642;23.384;2023-02-10T12:30:32;95909.84;;;5.42;40.58
6425;BME280;12193;42.642;23.384;2023-02-10T12:33:18;95908.81;;;3.87;43.01
6425;BME280;12193;42.642;23.384;2023-02-10T12:35:57;95909.22;;;4.12;42.92
6425;BME280;12193;42.642;23.384;2023-02-10T12:38:42;95909.38;;;4.20;42.79
6425;BME280;12193;42.642;23.384;2023-02-10T12:41:21;95908.00;;;4.46;42.12
6425;BME280;12193;42.642;23.384;2023-02-10T12:44:14;95898.91;;;4.72;41.78
6425;BME280;12193;42.642;23.384;2023-02-10T12:46:54;95902.66;;;4.59;41.58
6425;BME280;12193;42.642;23.384;2023-02-10T12:49:42;95900.25;;;4.07;43.09
6425;BME280;12193;42.642;23.384;2023-02-10T12:52:21;95898.88;;;4.03;43.30
6425;BME280;12193;42.642;23.384;2023-02-10T12:54:56;95894.97;;;4.08;42.63
6425;BME280;12193;42.642;23.384;2023-02-10T12:57:29;95907.09;;;3.97;41.95
6425;BME280;12193;42.642;23.384;2023-02-10T13:00:05;95898.59;;;4.26;41.90
6425;BME280;12193;42.642;23.384;2023-02-10T13:02:40;95899.03;;;4.11;42.65
6425;BME280;12193;42.642;23.384;2023-02-10T13:05:15;95899.91;;;4.21;42.02
6425;BME280;12193;42.642;23.384;2023-02-10T13:07:49;95895.41;;;4.13;42.25
6425;BME280;12193;42.642;23.384;2023-02-10T13:10:27;95903.00;;;4.45;42.32
6425;BME280;12193;42.642;23.384;2023-02-10T13:13:00;95897.84;;;3.33;42.88
6425;BME280;12193;42.642;23.384;2023-02-10T13:15:35;95895.28;;;3.33;43.16
6425;BME280;12193;42.642;23.384;2023-02-10T13:18:17;95897.81;;;3.65;42.55
6425;BME280;12193;42.642;23.384;2023-02-10T13:20:58;95904.34;;;3.69;43.23
6425;BME280;12193;42.642;23.384;2023-02-10T13:23:37;95898.38;;;3.48;42.26
6425;BME280;12193;42.642;23.384;2023-02-10T13:26:32;95896.88;;;3.45;42.08
6425;BME280;12193;42.642;23.384;2023-02-10T13:29:12;95897.06;;;3.53;42.30
6425;BME280;12193;42.642;23.384;2023-02-10T13:31:57;95893.56;;;3.54;41.92
6425;BME280;12193;42.642;23.384;2023-02-10T13:34:30;95899.19;;;3.48;41.03
6425;BME280;12193;42.642;23.384;2023-02-10T13:37:05;95893.28;;;3.78;41.46
6425;BME280;12193;42.642;23.384;2023-02-10T13:39:37;95891.03;;;4.05;41.54
6425;BME280;12193;42.642;23.384;2023-02-10T13:42:14;95890.69;;;4.18;42.09
6425;BME280;12193;42.642;23.384;2023-02-10T13:44:45;95892.75;;;4.24;40.85
6425;BME280;12193;42.642;23.384;2023-02-10T13:47:25;95884.13;;;4.05;41.00
6425;BME280;12193;42.642;23.384;2023-02-10T13:49:58;95877.66;;;4.10;40.68
6425;BME280;12193;42.642;23.384;2023-02-10T13:52:34;95881.22;;;4.19;41.50
6425;BME280;12193;42.642;23.384;2023-02-10T13:55:25;95892.25;;;4.10;41.44
6425;BME280;12193;42.642;23.384;2023-02-10T13:57:58;95884.00;;;4.07;41.55
6425;BME280;12193;42.642;23.384;2023-02-10T14:00:29;95883.78;;;4.19;42.57
6425;BME280;12193;42.642;23.384;2023-02-10T14:03:17;95886.19;;;4.11;41.18
6425;BME280;12193;42.642;23.384;2023-02-10T14:05:54;95889.00;;;4.08;41.30
6425;BME280;12193;42.642;23.384;2023-02-10T14:08:34;95893.22;;;4.09;41.19
6425;BME280;12193;42.642;23.384;2023-02-10T14:11:27;95889.66;;;4.30;40.04
6425;BME280;12193;42.642;23.384;2023-02-10T14:13:59;95895.41;;;4.43;40.88
6425;BME280;12193;42.642;23.384;2023-02-10T14:16:31;95884.09;;;4.25;40.29
6425;BME280;12193;42.642;23.384;2023-02-10T14:19:17;95888.66;;;3.92;41.32
6425;BME280;12193;42.642;23.384;2023-02-10T14:21:48;95886.16;;;3.81;40.96
6425;BME280;12193;42.642;23.384;2023-02-10T14:24:23;95889.66;;;4.01;40.35
6425;BME280;12193;42.642;23.384;2023-02-10T14:26:56;95883.16;;;4.26;40.57
6425;BME280;12193;42.642;23.384;2023-02-10T14:29:26;95884.00;;;4.07;40.59
6425;BME280;12193;42.642;23.384;2023-02-10T14:31:59;95882.47;;;4.24;40.72
6425;BME280;12193;42.642;23.384;2023-02-10T14:34:32;95882.47;;;3.74;41.23
6425;BME280;12193;42.642;23.384;2023-02-10T14:37:14;95875.09;;;3.90;41.42
6425;BME280;12193;42.642;23.384;2023-02-10T14:39:53;95871.72;;;3.90;40.54
6425;BME280;12193;42.642;23.384;2023-02-10T14:42:26;95877.72;;;4.00;40.50
6425;BME280;12193;42.642;23.384;2023-02-10T14:44:57;95870.88;;;4.09;40.62
6425;BME280;12193;42.642;23.384;2023-02-10T14:47:31;95872.94;;;4.15;41.44
6425;BME280;12193;42.642;23.384;2023-02-10T14:50:02;95869.06;;;4.01;41.82
6425;BME280;12193;42.642;23.384;2023-02-10T14:52:33;95871.69;;;3.80;42.47
6425;BME280;12193;42.642;23.384;2023-02-10T14:55:26;95877.25;;;3.65;42.64
6425;BME280;12193;42.642;23.384;2023-02-10T14:57:58;95878.81;;;3.56;42.90
6425;BME280;12193;42.642;23.384;2023-02-10T15:00:31;95877.81;;;3.48;42.81
6425;BME280;12193;42.642;23.384;2023-02-10T15:03:02;95873.88;;;3.64;42.56
6425;BME280;12193;42.642;23.384;2023-02-10T15:05:35;95876.56;;;3.63;43.07
6425;BME280;12193;42.642;23.384;2023-02-10T15:08:07;95878.13;;;3.34;44.72
6425;BME280;12193;42.642;23.384;2023-02-10T15:10:43;95876.28;;;3.25;45.86
6425;BME280;12193;42.642;23.384;2023-02-10T15:13:18;95883.50;;;3.31;45.99
6425;BME280;12193;42.642;23.384;2023-02-10T15:15:50;95879.56;;;3.16;46.31
6425;BME280;12193;42.642;23.384;2023-02-10T15:18:23;95880.78;;;3.12;46.95
6425;BME280;12193;42.642;23.384;2023-02-10T15:20:56;95876.50;;;3.02;47.83
6425;BME280;12193;42.642;23.384;2023-02-10T15:23:27;95885.84;;;2.92;47.50
6425;BME280;12193;42.642;23.384;2023-02-10T15:26:04;95888.41;;;2.92;48.19
6425;BME280;12193;42.642;23.384;2023-02-10T15:28:35;95891.13;;;2.79;48.25
6425;BME280;12193;42.642;23.384;2023-02-10T15:31:06;95885.44;;;2.76;48.05
6425;BME280;12193;42.642;23.384;2023-02-10T15:33:51;95894.53;;;2.69;49.03
6425;BME280;12193;42.642;23.384;2023-02-10T15:36:23;95890.25;;;2.47;49.62
6425;BME280;12193;42.642;23.384;2023-02-10T15:38:58;95894.13;;;2.31;50.76
6425;BME280;12193;42.642;23.384;2023-02-10T15:41:37;95898.91;;;2.24;51.39
6425;BME280;12193;42.642;23.384;2023-02-10T15:44:26;95896.56;;;2.10;52.15
6425;BME280;12193;42.642;23.384;2023-02-10T15:47:19;95896.44;;;2.01;52.84
6425;BME280;12193;42.642;23.384;2023-02-10T15:49:53;95908.88;;;1.95;53.70
6425;BME280;12193;42.642;23.384;2023-02-10T15:52:25;95912.59;;;1.80;54.63
6425;BME280;12193;42.642;23.384;2023-02-10T15:54:57;95910.97;;;1.68;55.22
6425;BME280;12193;42.642;23.384;2023-02-10T15:57:30;95912.81;;;1.77;55.42
6425;BME280;12193;42.642;23.384;2023-02-10T15:59:59;95914.94;;;1.72;55.83
6425;BME280;12193;42.642;23.384;2023-02-10T16:02:29;95915.03;;;1.70;55.41
6425;BME280;12193;42.642;23.384;2023-02-10T16:04:58;95912.72;;;1.78;58.08
6425;BME280;12193;42.642;23.384;2023-02-10T16:07:27;95926.09;;;1.71;56.17
6425;BME280;12193;42.642;23.384;2023-02-10T16:09:57;95926.91;;;1.60;56.12
6425;BME280;12193;42.642;23.384;2023-02-10T16:12:26;95922.88;;;1.45;57.34
6425;BME280;12193;42.642;23.384;2023-02-10T16:14:58;95925.63;;;1.31;57.90
6425;BME280;12193;42.642;23.384;2023-02-10T16:17:31;95931.22;;;1.36;57.58
6425;BME280;12193;42.642;23.384;2023-02-10T16:20:05;95938.09;;;1.36;57.76
6425;BME280;12193;42.642;23.384;2023-02-10T16:22:34;95936.50;;;1.46;57.38
6425;BME280;12193;42.642;23.384;2023-02-10T16:25:05;95936.63;;;1.21;58.25
6425;BME280;12193;42.642;23.384;2023-02-10T16:27:34;95944.88;;;1.13;58.41
6425;BME280;12193;42.642;23.384;2023-02-10T16:30:07;95943.81;;;1.16;58.54
6425;BME280;12193;42.642;23.384;2023-02-10T16:32:36;95946.75;;;0.99;59.38
6425;BME280;12193;42.642;23.384;2023-02-10T16:35:06;95953.31;;;1.03;59.36
6425;BME280;12193;42.642;23.384;2023-02-10T16:37:35;95949.53;;;0.96;59.10
6425;BME280;12193;42.642;23.384;2023-02-10T16:40:06;95949.44;;;0.98;59.75
6425;BME280;12193;42.642;23.384;2023-02-10T16:42:35;95953.50;;;0.77;61.69
6425;BME280;12193;42.642;23.384;2023-02-10T16:45:08;95953.22;;;0.56;62.98